sensor_id;sensor_type;location;lat;lon;timestamp;P1;durP1;ratioP1;P2;durP2;ratioP2
41661;SDS011;27351;45.992;12.666;2024-03-08T00:01:18;6.20;;;2.58;;
41661;SDS011;27351;45.992;12.666;2024-03-08T00:03:44;6.63;;;2.97;;
41661;SDS011;27351;45.992;12.666;2024-03-08T00:06:10;7.03;;;2.67;;
41661;SDS011;27351;45.992;12.666;2024-03-08T00:08:35;5.50;;;2.50;;
41661;SDS011;27351;45.992;12.666;2024-03-08T00:11:01;5.13;;;2.80;;
41661;SDS011;27351;45.992;12.666;2024-03-08T00:13:26;5.03;;;2.47;;
41661;SDS011;27351;45.992;12.666;2024-03-08T00:15:52;7.07;;;3.00;;
41661;SDS011;27351;45.992;12.666;2024-03-08T00:18:18;4.63;;;2.37;;
41661;SDS011;27351;45.992;12.666;2024-03-08T00:20:43;6.00;;;2.90;;
41661;SDS011;27351;45.992;12.666;2024-03-08T00:23:10;5.30;;;2.65;;
41661;SDS011;27351;45.992;12.666;2024-03-08T00:25:36;6.28;;;2.67;;
41661;SDS011;27351;45.992;12.666;2024-03-08T00:28:02;6.50;;;2.70;;
41661;SDS011;27351;45.992;12.666;2024-03-08T00:30:28;5.15;;;2.30;;
41661;SDS011;27351;45.992;12.666;2024-03-08T00:32:53;4.88;;;2.40;;
41661;SDS011;27351;45.992;12.666;2024-03-08T00:35:19;4.75;;;2.00;;
41661;SDS011;27351;45.992;12.666;2024-03-08T00:37:44;4.35;;;2.20;;
41661;SDS011;27351;45.992;12.666;2024-03-08T00:40:13;3.63;;;1.58;;
41661;SDS011;27351;45.992;12.666;2024-03-08T00:42:38;3.85;;;1.77;;
41661;SDS011;27351;45.992;12.666;2024-03-08T00:45:05;3.20;;;1.60;;
41661;SDS011;27351;45.992;12.666;2024-03-08T00:47:31;2.00;;;1.20;;
41661;SDS011;27351;45.992;12.666;2024-03-08T00:49:56;1.92;;;1.10;;
41661;SDS011;27351;45.992;12.666;2024-03-08T00:52:22;1.48;;;0.93;;
41661;SDS011;27351;45.992;12.666;2024-03-08T00:54:49;1.73;;;1.10;;
41661;SDS011;27351;45.992;12.666;2024-03-08T00:57:15;1.87;;;1.00;;
41661;SDS011;27351;45.992;12.666;2024-03-08T00:59:40;2.00;;;0.90;;
41661;SDS011;27351;45.992;12.666;2024-03-08T01:02:06;2.73;;;1.00;;
41661;SDS011;27351;45.992;12.666;2024-03-08T01:04:31;2.50;;;1.00;;
41661;SDS011;27351;45.992;12.666;2024-03-08T01:06:58;1.73;;;0.90;;
41661;SDS011;27351;45.992;12.666;2024-03-08T01:09:25;1.92;;;0.93;;
41661;SDS011;27351;45.992;12.666;2024-03-08T01:11:52;1.60;;;0.70;;
41661;SDS011;27351;45.992;12.666;2024-03-08T01:14:19;1.50;;;0.70;;
41661;SDS011;27351;45.992;12.666;2024-03-08T01:16:48;2.17;;;0.90;;
41661;SDS011;27351;45.992;12.666;2024-03-08T01:19:13;2.07;;;0.80;;
41661;SDS011;27351;45.992;12.666;2024-03-08T01:21:39;2.33;;;1.13;;
41661;SDS011;27351;45.992;12.666;2024-03-08T01:24:04;1.90;;;1.10;;
41661;SDS011;27351;45.992;12.666;2024-03-08T01:26:30;1.60;;;0.87;;
41661;SDS011;27351;45.992;12.666;2024-03-08T01:28:56;1.07;;;0.83;;
41661;SDS011;27351;45.992;12.666;2024-03-08T01:31:21;1.33;;;0.83;;
41661;SDS011;27351;45.992;12.666;2024-03-08T01:33:47;2.00;;;0.93;;
41661;SDS011;27351;45.992;12.666;2024-03-08T01:36:12;1.87;;;1.07;;
41661;SDS011;27351;45.992;12.666;2024-03-08T01:38:41;1.70;;;0.87;;
41661;SDS011;27351;45.992;12.666;2024-03-08T01:41:06;1.58;;;0.80;;
41661;SDS011;27351;45.992;12.666;2024-03-08T01:43:32;1.65;;;0.88;;
41661;SDS011;27351;45.992;12.666;2024-03-08T01:45:58;2.15;;;1.00;;
41661;SDS011;27351;45.992;12.666;2024-03-08T01:48:33;1.88;;;1.10;;
41661;SDS011;27351;45.992;12.666;2024-03-08T01:50:59;2.00;;;1.03;;
41661;SDS011;27351;45.992;12.666;2024-03-08T01:53:26;1.95;;;1.17;;
41661;SDS011;27351;45.992;12.666;2024-03-08T01:55:53;2.10;;;1.20;;
41661;SDS011;27351;45.992;12.666;2024-03-08T01:58:19;1.93;;;1.13;;
41661;SDS011;27351;45.992;12.666;2024-03-08T02:00:47;3.05;;;1.50;;
41661;SDS011;27351;45.992;12.666;2024-03-08T02:03:17;3.60;;;1.60;;
41661;SDS011;27351;45.992;12.666;2024-03-08T02:05:42;2.80;;;1.42;;
41661;SDS011;27351;45.992;12.666;2024-03-08T02:08:09;3.35;;;1.50;;
41661;SDS011;27351;45.992;12.666;2024-03-08T02:10:40;4.13;;;1.40;;
41661;SDS011;27351;45.992;12.666;2024-03-08T02:13:07;4.32;;;1.70;;
41661;SDS011;27351;45.992;12.666;2024-03-08T02:18:18;4.13;;;1.77;;
41661;SDS011;27351;45.992;12.666;2024-03-08T02:20:44;3.20;;;1.70;;
41661;SDS011;27351;45.992;12.666;2024-03-08T02:23:09;3.72;;;1.80;;
41661;SDS011;27351;45.992;12.666;2024-03-08T02:25:35;4.35;;;2.13;;
41661;SDS011;27351;45.992;12.666;2024-03-08T02:28:01;5.25;;;2.25;;
41661;SDS011;27351;45.992;12.666;2024-03-08T02:30:26;5.55;;;2.30;;
41661;SDS011;27351;45.992;12.666;2024-03-08T02:32:55;5.30;;;2.15;;
41661;SDS011;27351;45.992;12.666;2024-03-08T02:35:21;6.45;;;2.60;;
41661;SDS011;27351;45.992;12.666;2024-03-08T02:37:46;4.93;;;2.55;;
41661;SDS011;27351;45.992;12.666;2024-03-08T02:40:13;5.70;;;2.72;;
41661;SDS011;27351;45.992;12.666;2024-03-08T02:42:38;6.28;;;3.00;;
41661;SDS011;27351;45.992;12.666;2024-03-08T02:45:04;7.78;;;2.97;;
41661;SDS011;27351;45.992;12.666;2024-03-08T02:47:31;7.00;;;3.55;;
41661;SDS011;27351;45.992;12.666;2024-03-08T02:49:57;6.13;;;3.37;;
41661;SDS011;27351;45.992;12.666;2024-03-08T02:52:22;8.37;;;3.60;;
41661;SDS011;27351;45.992;12.666;2024-03-08T02:54:48;8.30;;;4.07;;
41661;SDS011;27351;45.992;12.666;2024-03-08T02:57:13;8.53;;;3.67;;
41661;SDS011;27351;45.992;12.666;2024-03-08T02:59:40;7.63;;;3.83;;
41661;SDS011;27351;45.992;12.666;2024-03-08T03:02:05;7.93;;;3.90;;
41661;SDS011;27351;45.992;12.666;2024-03-08T03:04:32;7.60;;;3.53;;
41661;SDS011;27351;45.992;12.666;2024-03-08T03:07:00;9.68;;;4.18;;
41661;SDS011;27351;45.992;12.666;2024-03-08T03:09:26;8.30;;;3.78;;
41661;SDS011;27351;45.992;12.666;2024-03-08T03:11:56;7.05;;;3.45;;
41661;SDS011;27351;45.992;12.666;2024-03-08T03:14:22;6.50;;;2.75;;
41661;SDS011;27351;45.992;12.666;2024-03-08T03:16:47;6.90;;;2.88;;
41661;SDS011;27351;45.992;12.666;2024-03-08T03:19:13;7.00;;;2.93;;
41661;SDS011;27351;45.992;12.666;2024-03-08T03:21:40;8.32;;;3.63;;
41661;SDS011;27351;45.992;12.666;2024-03-08T03:24:08;6.05;;;2.47;;
41661;SDS011;27351;45.992;12.666;2024-03-08T03:26:38;6.03;;;3.00;;
41661;SDS011;27351;45.992;12.666;2024-03-08T03:29:07;5.03;;;2.33;;
41661;SDS011;27351;45.992;12.666;2024-03-08T03:31:34;6.00;;;3.00;;
41661;SDS011;27351;45.992;12.666;2024-03-08T03:33:59;4.30;;;2.27;;
41661;SDS011;27351;45.992;12.666;2024-03-08T03:36:28;5.75;;;2.10;;
41661;SDS011;27351;45.992;12.666;2024-03-08T03:38:53;5.28;;;2.65;;
41661;SDS011;27351;45.992;12.666;2024-03-08T03:41:32;6.38;;;2.63;;
41661;SDS011;27351;45.992;12.666;2024-03-08T03:43:58;5.13;;;2.27;;
41661;SDS011;27351;45.992;12.666;2024-03-08T03:46:24;4.68;;;1.88;;
41661;SDS011;27351;45.992;12.666;2024-03-08T03:48:52;3.73;;;1.73;;
41661;SDS011;27351;45.992;12.666;2024-03-08T03:51:18;4.28;;;1.95;;
41661;SDS011;27351;45.992;12.666;2024-03-08T03:53:45;5.72;;;2.50;;
41661;SDS011;27351;45.992;12.666;2024-03-08T03:56:11;5.93;;;2.57;;
41661;SDS011;27351;45.992;12.666;2024-03-08T03:58:36;5.57;;;2.80;;
41661;SDS011;27351;45.992;12.666;2024-03-08T04:01:04;6.77;;;2.60;;
41661;SDS011;27351;45.992;12.666;2024-03-08T04:03:30;6.07;;;2.90;;
41661;SDS011;27351;45.992;12.666;2024-03-08T04:05:55;6.23;;;2.83;;
41661;SDS011;27351;45.992;12.666;2024-03-08T04:08:21;5.70;;;2.80;;
41661;SDS011;27351;45.992;12.666;2024-03-08T04:10:46;6.63;;;3.00;;
41661;SDS011;27351;45.992;12.666;2024-03-08T04:13:12;6.43;;;3.07;;
41661;SDS011;27351;45.992;12.666;2024-03-08T04:15:37;5.93;;;2.67;;
41661;SDS011;27351;45.992;12.666;2024-03-08T04:18:03;6.63;;;3.00;;
41661;SDS011;27351;45.992;12.666;2024-03-08T04:20:29;6.40;;;3.10;;
41661;SDS011;27351;45.992;12.666;2024-03-08T04:22:55;5.90;;;2.87;;
41661;SDS011;27351;45.992;12.666;2024-03-08T04:25:21;5.32;;;2.55;;
41661;SDS011;27351;45.992;12.666;2024-03-08T04:27:47;6.45;;;2.85;;
41661;SDS011;27351;45.992;12.666;2024-03-08T04:30:14;6.82;;;2.80;;
41661;SDS011;27351;45.992;12.666;2024-03-08T04:32:39;4.27;;;2.30;;
41661;SDS011;27351;45.992;12.666;2024-03-08T04:35:06;5.07;;;2.30;;
41661;SDS011;27351;45.992;12.666;2024-03-08T04:37:33;4.30;;;2.10;;
41661;SDS011;27351;45.992;12.666;2024-03-08T04:39:59;4.65;;;2.40;;
41661;SDS011;27351;45.992;12.666;2024-03-08T04:42:25;5.20;;;2.63;;
41661;SDS011;27351;45.992;12.666;2024-03-08T04:44:51;5.82;;;2.20;;
41661;SDS011;27351;45.992;12.666;2024-03-08T04:47:18;4.45;;;2.15;;
41661;SDS011;27351;45.992;12.666;2024-03-08T04:49:44;5.07;;;2.60;;
41661;SDS011;27351;45.992;12.666;2024-03-08T04:52:10;4.13;;;2.25;;
41661;SDS011;27351;45.992;12.666;2024-03-08T04:54:35;5.18;;;2.40;;
41661;SDS011;27351;45.992;12.666;2024-03-08T04:57:01;3.70;;;2.00;;
41661;SDS011;27351;45.992;12.666;2024-03-08T04:59:27;4.88;;;2.35;;
41661;SDS011;27351;45.992;12.666;2024-03-08T05:01:52;4.25;;;2.00;;
41661;SDS011;27351;45.992;12.666;2024-03-08T05:04:18;5.43;;;2.17;;
41661;SDS011;27351;45.992;12.666;2024-03-08T05:06:44;3.97;;;2.13;;
41661;SDS011;27351;45.992;12.666;2024-03-08T05:09:15;4.20;;;2.10;;
41661;SDS011;27351;45.992;12.666;2024-03-08T05:11:42;5.72;;;2.03;;
41661;SDS011;27351;45.992;12.666;2024-03-08T05:14:08;5.00;;;2.45;;
41661;SDS011;27351;45.992;12.666;2024-03-08T05:16:34;4.22;;;2.17;;
41661;SDS011;27351;45.992;12.666;2024-03-08T05:18:59;4.50;;;2.30;;
41661;SDS011;27351;45.992;12.666;2024-03-08T05:21:25;3.90;;;2.20;;
41661;SDS011;27351;45.992;12.666;2024-03-08T05:23:51;5.37;;;2.33;;
41661;SDS011;27351;45.992;12.666;2024-03-08T05:26:16;5.15;;;2.30;;
41661;SDS011;27351;45.992;12.666;2024-03-08T05:28:42;5.00;;;2.45;;
41661;SDS011;27351;45.992;12.666;2024-03-08T05:31:08;4.88;;;2.22;;
41661;SDS011;27351;45.992;12.666;2024-03-08T05:33:33;5.60;;;2.92;;
41661;SDS011;27351;45.992;12.666;2024-03-08T05:36:02;5.78;;;2.83;;
41661;SDS011;27351;45.992;12.666;2024-03-08T05:38:28;6.47;;;2.50;;
41661;SDS011;27351;45.992;12.666;2024-03-08T05:40:54;5.55;;;2.60;;
41661;SDS011;27351;45.992;12.666;2024-03-08T05:43:19;5.30;;;2.50;;
41661;SDS011;27351;45.992;12.666;2024-03-08T05:45:45;5.80;;;2.83;;
41661;SDS011;27351;45.992;12.666;2024-03-08T05:48:11;5.57;;;2.37;;
41661;SDS011;27351;45.992;12.666;2024-03-08T05:50:39;5.50;;;2.63;;
41661;SDS011;27351;45.992;12.666;2024-03-08T05:53:05;4.47;;;2.47;;
41661;SDS011;27351;45.992;12.666;2024-03-08T05:55:33;5.10;;;2.53;;
41661;SDS011;27351;45.992;12.666;2024-03-08T05:58:00;4.85;;;2.42;;
41661;SDS011;27351;45.992;12.666;2024-03-08T06:00:26;4.03;;;2.20;;
41661;SDS011;27351;45.992;12.666;2024-03-08T06:02:52;6.18;;;2.85;;
41661;SDS011;27351;45.992;12.666;2024-03-08T06:05:17;4.40;;;2.28;;
41661;SDS011;27351;45.992;12.666;2024-03-08T06:07:43;5.38;;;2.35;;
41661;SDS011;27351;45.992;12.666;2024-03-08T06:10:09;5.18;;;2.47;;
41661;SDS011;27351;45.992;12.666;2024-03-08T06:12:36;4.53;;;2.15;;
41661;SDS011;27351;45.992;12.666;2024-03-08T06:15:06;5.68;;;2.53;;
41661;SDS011;27351;45.992;12.666;2024-03-08T06:17:31;4.78;;;2.35;;
41661;SDS011;27351;45.992;12.666;2024-03-08T06:19:57;5.13;;;2.40;;
41661;SDS011;27351;45.992;12.666;2024-03-08T06:22:23;5.30;;;2.40;;
41661;SDS011;27351;45.992;12.666;2024-03-08T06:24:48;4.53;;;2.20;;
41661;SDS011;27351;45.992;12.666;2024-03-08T06:27:14;4.85;;;2.60;;
41661;SDS011;27351;45.992;12.666;2024-03-08T06:29:39;6.67;;;2.57;;
41661;SDS011;27351;45.992;12.666;2024-03-08T06:32:05;5.70;;;2.40;;
41661;SDS011;27351;45.992;12.666;2024-03-08T06:34:32;6.17;;;2.70;;
41661;SDS011;27351;45.992;12.666;2024-03-08T06:37:00;6.25;;;2.85;;
41661;SDS011;27351;45.992;12.666;2024-03-08T06:39:27;4.70;;;2.33;;
41661;SDS011;27351;45.992;12.666;2024-03-08T06:41:55;4.53;;;2.07;;
41661;SDS011;27351;45.992;12.666;2024-03-08T06:44:21;5.37;;;2.43;;
41661;SDS011;27351;45.992;12.666;2024-03-08T06:46:47;5.25;;;2.30;;
41661;SDS011;27351;45.992;12.666;2024-03-08T06:49:13;5.27;;;1.90;;
41661;SDS011;27351;45.992;12.666;2024-03-08T06:51:40;6.07;;;2.20;;
41661;SDS011;27351;45.992;12.666;2024-03-08T06:54:06;4.65;;;2.35;;
41661;SDS011;27351;45.992;12.666;2024-03-08T06:56:34;5.35;;;2.58;;
41661;SDS011;27351;45.992;12.666;2024-03-08T06:59:00;5.88;;;2.80;;
41661;SDS011;27351;45.992;12.666;2024-03-08T07:01:28;5.63;;;2.35;;
41661;SDS011;27351;45.992;12.666;2024-03-08T07:04:00;5.82;;;2.70;;
41661;SDS011;27351;45.992;12.666;2024-03-08T07:06:27;5.95;;;2.72;;
41661;SDS011;27351;45.992;12.666;2024-03-08T07:08:54;5.85;;;2.50;;
41661;SDS011;27351;45.992;12.666;2024-03-08T07:11:19;6.33;;;2.70;;
41661;SDS011;27351;45.992;12.666;2024-03-08T07:13:45;6.70;;;2.87;;
41661;SDS011;27351;45.992;12.666;2024-03-08T07:16:11;5.60;;;2.90;;
41661;SDS011;27351;45.992;12.666;2024-03-08T07:18:37;6.43;;;2.87;;
41661;SDS011;27351;45.992;12.666;2024-03-08T07:21:11;5.75;;;2.60;;
41661;SDS011;27351;45.992;12.666;2024-03-08T07:23:37;6.18;;;2.80;;
41661;SDS011;27351;45.992;12.666;2024-03-08T07:26:15;5.50;;;2.58;;
41661;SDS011;27351;45.992;12.666;2024-03-08T07:28:40;6.40;;;2.88;;
41661;SDS011;27351;45.992;12.666;2024-03-08T07:31:06;6.97;;;3.03;;
41661;SDS011;27351;45.992;12.666;2024-03-08T07:33:37;6.57;;;2.70;;
41661;SDS011;27351;45.992;12.666;2024-03-08T07:36:03;5.20;;;2.55;;
41661;SDS011;27351;45.992;12.666;2024-03-08T07:38:29;7.17;;;3.33;;
41661;SDS011;27351;45.992;12.666;2024-03-08T07:40:54;6.93;;;3.70;;
41661;SDS011;27351;45.992;12.666;2024-03-08T07:43:22;6.18;;;2.75;;
41661;SDS011;27351;45.992;12.666;2024-03-08T07:45:48;6.90;;;2.90;;
41661;SDS011;27351;45.992;12.666;2024-03-08T07:48:13;6.80;;;3.43;;
41661;SDS011;27351;45.992;12.666;2024-03-08T07:50:39;7.03;;;2.80;;
41661;SDS011;27351;45.992;12.666;2024-03-08T07:53:05;6.50;;;2.92;;
41661;SDS011;27351;45.992;12.666;2024-03-08T07:55:35;5.88;;;3.15;;
41661;SDS011;27351;45.992;12.666;2024-03-08T07:58:03;7.50;;;3.10;;
41661;SDS011;27351;45.992;12.666;2024-03-08T08:00:29;5.72;;;2.70;;
41661;SDS011;27351;45.992;12.666;2024-03-08T08:02:56;7.10;;;3.67;;
41661;SDS011;27351;45.992;12.666;2024-03-08T08:05:22;7.22;;;3.63;;
41661;SDS011;27351;45.992;12.666;2024-03-08T08:07:48;7.15;;;3.50;;
41661;SDS011;27351;45.992;12.666;2024-03-08T08:10:13;5.97;;;3.20;;
41661;SDS011;27351;45.992;12.666;2024-03-08T08:12:44;6.32;;;3.15;;
41661;SDS011;27351;45.992;12.666;2024-03-08T08:15:09;6.60;;;3.27;;
41661;SDS011;27351;45.992;12.666;2024-03-08T08:17:35;6.00;;;3.03;;
41661;SDS011;27351;45.992;12.666;2024-03-08T08:20:00;7.80;;;3.40;;
41661;SDS011;27351;45.992;12.666;2024-03-08T08:22:26;7.70;;;3.60;;
41661;SDS011;27351;45.992;12.666;2024-03-08T08:24:52;6.80;;;2.95;;
41661;SDS011;27351;45.992;12.666;2024-03-08T08:27:18;7.30;;;3.42;;
41661;SDS011;27351;45.992;12.666;2024-03-08T08:29:43;7.15;;;2.97;;
41661;SDS011;27351;45.992;12.666;2024-03-08T08:32:11;7.13;;;3.58;;
41661;SDS011;27351;45.992;12.666;2024-03-08T08:34:36;6.97;;;3.43;;
41661;SDS011;27351;45.992;12.666;2024-03-08T08:37:02;8.43;;;3.65;;
41661;SDS011;27351;45.992;12.666;2024-03-08T08:39:27;6.40;;;3.10;;
41661;SDS011;27351;45.992;12.666;2024-03-08T08:41:53;6.97;;;3.65;;
41661;SDS011;27351;45.992;12.666;2024-03-08T08:44:18;9.73;;;3.77;;
41661;SDS011;27351;45.992;12.666;2024-03-08T08:46:44;8.13;;;3.50;;
41661;SDS011;27351;45.992;12.666;2024-03-08T08:49:10;7.73;;;3.20;;
41661;SDS011;27351;45.992;12.666;2024-03-08T08:51:51;6.88;;;3.38;;
41661;SDS011;27351;45.992;12.666;2024-03-08T08:54:17;7.05;;;3.05;;
41661;SDS011;27351;45.992;12.666;2024-03-08T08:56:43;7.20;;;3.42;;
41661;SDS011;27351;45.992;12.666;2024-03-08T08:59:09;7.53;;;3.57;;
41661;SDS011;27351;45.992;12.666;2024-03-08T09:01:41;10.93;;;3.50;;
41661;SDS011;27351;45.992;12.666;2024-03-08T09:04:07;6.03;;;2.80;;
41661;SDS011;27351;45.992;12.666;2024-03-08T09:06:33;8.32;;;3.28;;
41661;SDS011;27351;45.992;12.666;2024-03-08T09:08:59;6.88;;;3.00;;
41661;SDS011;27351;45.992;12.666;2024-03-08T09:11:24;6.70;;;2.87;;
41661;SDS011;27351;45.992;12.666;2024-03-08T09:13:53;7.65;;;3.33;;
41661;SDS011;27351;45.992;12.666;2024-03-08T09:16:18;9.30;;;3.43;;
41661;SDS011;27351;45.992;12.666;2024-03-08T09:18:44;8.03;;;3.57;;
41661;SDS011;27351;45.992;12.666;2024-03-08T09:21:09;6.93;;;3.10;;
41661;SDS011;27351;45.992;12.666;2024-03-08T09:23:37;8.10;;;3.50;;
41661;SDS011;27351;45.992;12.666;2024-03-08T09:26:03;8.10;;;3.37;;
41661;SDS011;27351;45.992;12.666;2024-03-08T09:28:29;9.40;;;3.85;;
41661;SDS011;27351;45.992;12.666;2024-03-08T09:30:55;7.38;;;3.55;;
41661;SDS011;27351;45.992;12.666;2024-03-08T09:33:20;8.45;;;3.70;;
41661;SDS011;27351;45.992;12.666;2024-03-08T09:35:47;7.53;;;3.80;;
41661;SDS011;27351;45.992;12.666;2024-03-08T09:38:14;7.55;;;3.40;;
41661;SDS011;27351;45.992;12.666;2024-03-08T09:40:43;7.85;;;3.72;;
41661;SDS011;27351;45.992;12.666;2024-03-08T09:43:09;7.68;;;3.70;;
41661;SDS011;27351;45.992;12.666;2024-03-08T09:45:37;7.63;;;3.72;;
41661;SDS011;27351;45.992;12.666;2024-03-08T09:48:15;7.97;;;3.65;;
41661;SDS011;27351;45.992;12.666;2024-03-08T09:50:42;8.30;;;3.67;;
41661;SDS011;27351;45.992;12.666;2024-03-08T09:53:08;9.57;;;3.90;;
41661;SDS011;27351;45.992;12.666;2024-03-08T09:55:38;8.77;;;3.97;;
41661;SDS011;27351;45.992;12.666;2024-03-08T09:58:07;8.40;;;3.47;;
41661;SDS011;27351;45.992;12.666;2024-03-08T10:00:42;7.15;;;3.30;;
41661;SDS011;27351;45.992;12.666;2024-03-08T10:03:07;8.05;;;3.25;;
41661;SDS011;27351;45.992;12.666;2024-03-08T10:05:34;7.32;;;3.22;;
41661;SDS011;27351;45.992;12.666;2024-03-08T10:07:59;7.37;;;2.87;;
41661;SDS011;27351;45.992;12.666;2024-03-08T10:10:25;8.40;;;2.97;;
41661;SDS011;27351;45.992;12.666;2024-03-08T10:12:51;8.25;;;3.10;;
41661;SDS011;27351;45.992;12.666;2024-03-08T10:15:17;8.52;;;3.67;;
41661;SDS011;27351;45.992;12.666;2024-03-08T10:17:43;7.47;;;3.43;;
41661;SDS011;27351;45.992;12.666;2024-03-08T10:20:15;7.93;;;3.30;;
41661;SDS011;27351;45.992;12.666;2024-03-08T10:22:41;9.05;;;3.15;;
41661;SDS011;27351;45.992;12.666;2024-03-08T10:25:10;7.18;;;3.22;;
41661;SDS011;27351;45.992;12.666;2024-03-08T10:27:36;7.93;;;3.53;;
41661;SDS011;27351;45.992;12.666;2024-03-08T10:30:02;7.83;;;3.53;;
41661;SDS011;27351;45.992;12.666;2024-03-08T10:32:28;7.30;;;3.17;;
41661;SDS011;27351;45.992;12.666;2024-03-08T10:34:53;6.95;;;3.17;;
41661;SDS011;27351;45.992;12.666;2024-03-08T10:37:21;7.68;;;3.20;;
41661;SDS011;27351;45.992;12.666;2024-03-08T10:39:52;6.13;;;2.70;;
41661;SDS011;27351;45.992;12.666;2024-03-08T10:42:22;8.32;;;3.60;;
41661;SDS011;27351;45.992;12.666;2024-03-08T10:45:05;6.70;;;3.17;;
41661;SDS011;27351;45.992;12.666;2024-03-08T10:47:33;6.60;;;3.50;;
41661;SDS011;27351;45.992;12.666;2024-03-08T10:52:41;8.37;;;3.80;;
41661;SDS011;27351;45.992;12.666;2024-03-08T10:55:07;8.30;;;3.53;;
41661;SDS011;27351;45.992;12.666;2024-03-08T10:57:40;7.38;;;3.47;;
41661;SDS011;27351;45.992;12.666;2024-03-08T11:00:07;6.55;;;3.13;;
41661;SDS011;27351;45.992;12.666;2024-03-08T11:02:36;7.63;;;3.25;;
41661;SDS011;27351;45.992;12.666;2024-03-08T11:05:03;7.13;;;3.58;;
41661;SDS011;27351;45.992;12.666;2024-03-08T11:07:33;8.30;;;3.58;;
41661;SDS011;27351;45.992;12.666;2024-03-08T11:10:02;7.30;;;3.20;;
41661;SDS011;27351;45.992;12.666;2024-03-08T11:12:35;10.85;;;3.25;;
41661;SDS011;27351;45.992;12.666;2024-03-08T11:15:02;6.47;;;3.50;;
41661;SDS011;27351;45.992;12.666;2024-03-08T11:20:04;8.80;;;3.67;;
41661;SDS011;27351;45.992;12.666;2024-03-08T11:22:41;6.88;;;3.42;;
41661;SDS011;27351;45.992;12.666;2024-03-08T11:25:16;7.80;;;3.72;;
41661;SDS011;27351;45.992;12.666;2024-03-08T11:28:11;6.57;;;3.05;;
41661;SDS011;27351;45.992;12.666;2024-03-08T11:33:13;7.15;;;2.97;;
41661;SDS011;27351;45.992;12.666;2024-03-08T11:35:40;6.53;;;3.08;;
41661;SDS011;27351;45.992;12.666;2024-03-08T11:38:08;6.80;;;3.33;;
41661;SDS011;27351;45.992;12.666;2024-03-08T11:40:35;8.38;;;3.65;;
41661;SDS011;27351;45.992;12.666;2024-03-08T11:43:01;8.45;;;3.38;;
41661;SDS011;27351;45.992;12.666;2024-03-08T11:45:33;8.13;;;3.50;;
41661;SDS011;27351;45.992;12.666;2024-03-08T11:48:02;7.70;;;3.28;;
41661;SDS011;27351;45.992;12.666;2024-03-08T11:50:29;6.55;;;3.10;;
41661;SDS011;27351;45.992;12.666;2024-03-08T11:53:00;8.23;;;3.40;;
41661;SDS011;27351;45.992;12.666;2024-03-08T11:55:26;9.52;;;3.85;;
41661;SDS011;27351;45.992;12.666;2024-03-08T11:57:59;6.63;;;3.30;;
41661;SDS011;27351;45.992;12.666;2024-03-08T12:00:24;8.30;;;3.35;;
41661;SDS011;27351;45.992;12.666;2024-03-08T12:03:04;9.43;;;3.60;;
41661;SDS011;27351;45.992;12.666;2024-03-08T12:05:30;8.40;;;3.47;;
41661;SDS011;27351;45.992;12.666;2024-03-08T12:07:57;7.72;;;3.13;;
41661;SDS011;27351;45.992;12.666;2024-03-08T12:10:23;8.38;;;3.53;;
41661;SDS011;27351;45.992;12.666;2024-03-08T12:12:53;8.93;;;3.30;;
41661;SDS011;27351;45.992;12.666;2024-03-08T12:15:20;9.63;;;3.58;;
41661;SDS011;27351;45.992;12.666;2024-03-08T12:17:47;8.73;;;3.40;;
41661;SDS011;27351;45.992;12.666;2024-03-08T12:20:16;7.83;;;3.27;;
41661;SDS011;27351;45.992;12.666;2024-03-08T12:22:45;7.00;;;3.00;;
41661;SDS011;27351;45.992;12.666;2024-03-08T12:25:11;7.68;;;3.50;;
41661;SDS011;27351;45.992;12.666;2024-03-08T12:27:38;8.15;;;3.35;;
41661;SDS011;27351;45.992;12.666;2024-03-08T12:33:07;7.85;;;3.65;;
41661;SDS011;27351;45.992;12.666;2024-03-08T12:35:36;7.55;;;3.65;;
41661;SDS011;27351;45.992;12.666;2024-03-08T12:38:02;6.00;;;2.95;;
41661;SDS011;27351;45.992;12.666;2024-03-08T12:40:28;8.45;;;3.33;;
41661;SDS011;27351;45.992;12.666;2024-03-08T12:42:55;7.57;;;3.67;;
41661;SDS011;27351;45.992;12.666;2024-03-08T12:45:21;8.93;;;3.63;;
41661;SDS011;27351;45.992;12.666;2024-03-08T12:47:49;7.50;;;4.05;;
41661;SDS011;27351;45.992;12.666;2024-03-08T12:50:15;7.23;;;3.50;;
41661;SDS011;27351;45.992;12.666;2024-03-08T12:52:42;8.27;;;3.28;;
41661;SDS011;27351;45.992;12.666;2024-03-08T12:55:08;7.00;;;3.47;;
41661;SDS011;27351;45.992;12.666;2024-03-08T12:57:34;6.70;;;3.23;;
41661;SDS011;27351;45.992;12.666;2024-03-08T13:00:01;7.20;;;3.35;;
41661;SDS011;27351;45.992;12.666;2024-03-08T13:02:28;7.22;;;3.00;;
41661;SDS011;27351;45.992;12.666;2024-03-08T13:04:53;8.17;;;3.07;;
41661;SDS011;27351;45.992;12.666;2024-03-08T13:07:25;7.53;;;3.38;;
41661;SDS011;27351;45.992;12.666;2024-03-08T13:09:54;7.17;;;3.40;;
41661;SDS011;27351;45.992;12.666;2024-03-08T13:12:21;7.55;;;3.17;;
41661;SDS011;27351;45.992;12.666;2024-03-08T13:14:47;8.18;;;3.78;;
41661;SDS011;27351;45.992;12.666;2024-03-08T13:17:13;7.25;;;3.50;;
41661;SDS011;27351;45.992;12.666;2024-03-08T13:19:39;8.70;;;4.03;;
41661;SDS011;27351;45.992;12.666;2024-03-08T13:22:05;8.67;;;3.80;;
41661;SDS011;27351;45.992;12.666;2024-03-08T13:24:31;6.95;;;3.15;;
41661;SDS011;27351;45.992;12.666;2024-03-08T13:26:57;6.90;;;3.20;;
41661;SDS011;27351;45.992;12.666;2024-03-08T13:29:23;20.60;;;4.80;;
41661;SDS011;27351;45.992;12.666;2024-03-08T13:31:49;8.33;;;3.63;;
41661;SDS011;27351;45.992;12.666;2024-03-08T13:34:17;8.70;;;3.80;;
41661;SDS011;27351;45.992;12.666;2024-03-08T13:36:43;7.97;;;3.50;;
41661;SDS011;27351;45.992;12.666;2024-03-08T13:39:09;8.40;;;3.33;;
41661;SDS011;27351;45.992;12.666;2024-03-08T13:41:46;7.97;;;3.35;;
41661;SDS011;27351;45.992;12.666;2024-03-08T13:44:11;7.35;;;3.20;;
41661;SDS011;27351;45.992;12.666;2024-03-08T13:46:37;7.85;;;3.30;;
41661;SDS011;27351;45.992;12.666;2024-03-08T13:49:04;6.82;;;3.30;;
41661;SDS011;27351;45.992;12.666;2024-03-08T13:51:35;7.50;;;3.22;;
41661;SDS011;27351;45.992;12.666;2024-03-08T13:54:01;7.30;;;3.40;;
41661;SDS011;27351;45.992;12.666;2024-03-08T13:56:27;7.00;;;3.15;;
41661;SDS011;27351;45.992;12.666;2024-03-08T13:58:53;9.32;;;3.35;;
41661;SDS011;27351;45.992;12.666;2024-03-08T14:01:21;8.77;;;4.10;;
41661;SDS011;27351;45.992;12.666;2024-03-08T14:03:47;6.40;;;2.97;;
41661;SDS011;27351;45.992;12.666;2024-03-08T14:06:13;6.72;;;3.03;;
41661;SDS011;27351;45.992;12.666;2024-03-08T14:08:38;6.53;;;3.10;;
41661;SDS011;27351;45.992;12.666;2024-03-08T14:11:04;7.47;;;3.22;;
41661;SDS011;27351;45.992;12.666;2024-03-08T14:13:43;6.35;;;3.10;;
41661;SDS011;27351;45.992;12.666;2024-03-08T14:16:12;7.47;;;3.03;;
41661;SDS011;27351;45.992;12.666;2024-03-08T14:18:38;6.82;;;3.08;;
41661;SDS011;27351;45.992;12.666;2024-03-08T14:21:04;6.63;;;2.97;;
41661;SDS011;27351;45.992;12.666;2024-03-08T14:23:30;6.27;;;2.97;;
41661;SDS011;27351;45.992;12.666;2024-03-08T14:25:56;6.38;;;2.78;;
41661;SDS011;27351;45.992;12.666;2024-03-08T14:28:24;5.72;;;3.00;;
41661;SDS011;27351;45.992;12.666;2024-03-08T14:30:50;5.87;;;2.60;;
41661;SDS011;27351;45.992;12.666;2024-03-08T14:33:15;5.83;;;2.70;;
41661;SDS011;27351;45.992;12.666;2024-03-08T14:35:42;5.82;;;2.72;;
41661;SDS011;27351;45.992;12.666;2024-03-08T14:38:08;7.20;;;2.80;;
41661;SDS011;27351;45.992;12.666;2024-03-08T14:40:38;7.40;;;3.10;;
41661;SDS011;27351;45.992;12.666;2024-03-08T14:43:04;6.00;;;2.97;;
41661;SDS011;27351;45.992;12.666;2024-03-08T14:45:30;5.72;;;2.63;;